sensor_id;sensor_type;location;lat;lon;timestamp;P1;durP1;ratioP1;P2;durP2;ratioP2
462;SDS011;218;51.902;9.542;2023-06-14T00:00:27;3.50;;;3.30;;
462;SDS011;218;51.902;9.542;2023-06-14T00:02:56;4.03;;;3.83;;
462;SDS011;218;51.902;9.542;2023-06-14T00:05:23;3.90;;;3.50;;
462;SDS011;218;51.902;9.542;2023-06-14T00:07:51;4.93;;;4.30;;
462;SDS011;218;51.902;9.542;2023-06-14T00:10:18;5.03;;;3.70;;
462;SDS011;218;51.902;9.542;2023-06-14T00:12:46;4.30;;;4.00;;
462;SDS011;218;51.902;9.542;2023-06-14T00:15:13;5.43;;;5.07;;
462;SDS011;218;51.902;9.542;2023-06-14T00:17:42;4.13;;;3.83;;
462;SDS011;218;51.902;9.542;2023-06-14T00:20:12;4.20;;;3.90;;
462;SDS011;218;51.902;9.542;2023-06-14T00:22:39;7.40;;;4.50;;
462;SDS011;218;51.902;9.542;2023-06-14T00:25:07;3.65;;;3.45;;
462;SDS011;218;51.902;9.542;2023-06-14T00:27:34;5.43;;;4.10;;
462;SDS011;218;51.902;9.542;2023-06-14T00:30:01;3.60;;;3.30;;
462;SDS011;218;51.902;9.542;2023-06-14T00:32:28;4.13;;;3.83;;
462;SDS011;218;51.902;9.542;2023-06-14T00:34:57;3.50;;;3.30;;
462;SDS011;218;51.902;9.542;2023-06-14T00:37:24;4.07;;;3.77;;
462;SDS011;218;51.902;9.542;2023-06-14T00:39:51;3.90;;;3.60;;
462;SDS011;218;51.902;9.542;2023-06-14T00:42:24;4.80;;;4.40;;
462;SDS011;218;51.902;9.542;2023-06-14T00:44:51;3.60;;;3.30;;
462;SDS011;218;51.902;9.542;2023-06-14T00:47:18;3.90;;;3.57;;
462;SDS011;218;51.902;9.542;2023-06-14T00:49:46;4.07;;;3.70;;
462;SDS011;218;51.902;9.542;2023-06-14T00:52:15;4.47;;;4.17;;
462;SDS011;218;51.902;9.542;2023-06-14T00:54:42;4.80;;;4.10;;
462;SDS011;218;51.902;9.542;2023-06-14T00:57:10;4.20;;;3.90;;
462;SDS011;218;51.902;9.542;2023-06-14T00:59:38;4.20;;;3.90;;
462;SDS011;218;51.902;9.542;2023-06-14T01:02:08;5.47;;;3.85;;
462;SDS011;218;51.902;9.542;2023-06-14T01:04:36;4.30;;;4.00;;
462;SDS011;218;51.902;9.542;2023-06-14T01:07:05;4.20;;;3.80;;
462;SDS011;218;51.902;9.542;2023-06-14T01:09:43;4.07;;;3.77;;
462;SDS011;218;51.902;9.542;2023-06-14T01:12:13;4.47;;;4.17;;
462;SDS011;218;51.902;9.542;2023-06-14T01:14:41;5.00;;;4.60;;
462;SDS011;218;51.902;9.542;2023-06-14T01:17:09;5.13;;;4.73;;
462;SDS011;218;51.902;9.542;2023-06-14T01:19:41;4.60;;;4.30;;
462;SDS011;218;51.902;9.542;2023-06-14T01:22:09;5.20;;;4.87;;
462;SDS011;218;51.902;9.542;2023-06-14T01:24:38;5.90;;;5.50;;
462;SDS011;218;51.902;9.542;2023-06-14T01:27:10;4.70;;;4.20;;
462;SDS011;218;51.902;9.542;2023-06-14T01:29:38;4.90;;;4.50;;
462;SDS011;218;51.902;9.542;2023-06-14T01:32:10;4.30;;;4.00;;
462;SDS011;218;51.902;9.542;2023-06-14T01:34:38;5.97;;;4.37;;
462;SDS011;218;51.902;9.542;2023-06-14T01:37:05;4.60;;;4.20;;
462;SDS011;218;51.902;9.542;2023-06-14T01:39:33;5.20;;;4.80;;
462;SDS011;218;51.902;9.542;2023-06-14T01:42:02;4.60;;;4.20;;
462;SDS011;218;51.902;9.542;2023-06-14T01:44:29;5.15;;;4.65;;
462;SDS011;218;51.902;9.542;2023-06-14T01:46:57;7.50;;;4.77;;
462;SDS011;218;51.902;9.542;2023-06-14T01:49:25;4.80;;;4.28;;
462;SDS011;218;51.902;9.542;2023-06-14T01:51:52;5.28;;;4.88;;
462;SDS011;218;51.902;9.542;2023-06-14T01:54:20;5.55;;;4.65;;
462;SDS011;218;51.902;9.542;2023-06-14T01:56:47;4.95;;;4.50;;
462;SDS011;218;51.902;9.542;2023-06-14T01:59:16;5.10;;;4.70;;
462;SDS011;218;51.902;9.542;2023-06-14T02:01:43;4.10;;;3.80;;
462;SDS011;218;51.902;9.542;2023-06-14T02:04:11;6.22;;;5.55;;
462;SDS011;218;51.902;9.542;2023-06-14T02:06:38;5.13;;;4.63;;
462;SDS011;218;51.902;9.542;2023-06-14T02:09:05;3.88;;;3.55;;
462;SDS011;218;51.902;9.542;2023-06-14T02:11:32;5.57;;;5.07;;
462;SDS011;218;51.902;9.542;2023-06-14T02:13:59;5.28;;;4.78;;
462;SDS011;218;51.902;9.542;2023-06-14T02:16:28;4.65;;;4.25;;
462;SDS011;218;51.902;9.542;2023-06-14T02:18:55;5.28;;;4.88;;
462;SDS011;218;51.902;9.542;2023-06-14T02:21:23;5.10;;;4.40;;
462;SDS011;218;51.902;9.542;2023-06-14T02:23:50;5.07;;;4.68;;
462;SDS011;218;51.902;9.542;2023-06-14T02:26:17;4.95;;;4.55;;
462;SDS011;218;51.902;9.542;2023-06-14T02:28:44;5.13;;;4.70;;
462;SDS011;218;51.902;9.542;2023-06-14T02:31:11;4.53;;;4.13;;
462;SDS011;218;51.902;9.542;2023-06-14T02:33:39;5.07;;;4.60;;
462;SDS011;218;51.902;9.542;2023-06-14T02:36:07;4.50;;;4.10;;
462;SDS011;218;51.902;9.542;2023-06-14T02:38:34;4.45;;;4.05;;
462;SDS011;218;51.902;9.542;2023-06-14T02:41:01;5.10;;;4.60;;
462;SDS011;218;51.902;9.542;2023-06-14T02:43:29;5.20;;;4.70;;
462;SDS011;218;51.902;9.542;2023-06-14T02:45:56;5.57;;;5.07;;
462;SDS011;218;51.902;9.542;2023-06-14T02:48:23;4.90;;;4.50;;
462;SDS011;218;51.902;9.542;2023-06-14T02:50:52;4.95;;;4.40;;
462;SDS011;218;51.902;9.542;2023-06-14T02:53:19;4.72;;;4.32;;
462;SDS011;218;51.902;9.542;2023-06-14T02:55:46;4.65;;;4.35;;
462;SDS011;218;51.902;9.542;2023-06-14T02:58:13;4.88;;;4.53;;
462;SDS011;218;51.902;9.542;2023-06-14T03:00:41;5.40;;;4.20;;
462;SDS011;218;51.902;9.542;2023-06-14T03:03:08;4.70;;;4.20;;
462;SDS011;218;51.902;9.542;2023-06-14T03:05:39;4.90;;;4.40;;
462;SDS011;218;51.902;9.542;2023-06-14T03:08:12;4.30;;;4.00;;
462;SDS011;218;51.902;9.542;2023-06-14T03:10:42;4.40;;;4.00;;
462;SDS011;218;51.902;9.542;2023-06-14T03:13:09;3.90;;;3.50;;
462;SDS011;218;51.902;9.542;2023-06-14T03:15:37;4.88;;;3.90;;
462;SDS011;218;51.902;9.542;2023-06-14T03:18:06;4.00;;;3.70;;
462;SDS011;218;51.902;9.542;2023-06-14T03:20:34;4.63;;;4.23;;
462;SDS011;218;51.902;9.542;2023-06-14T03:23:02;4.90;;;4.28;;
462;SDS011;218;51.902;9.542;2023-06-14T03:25:32;4.77;;;4.37;;
462;SDS011;218;51.902;9.542;2023-06-14T03:28:01;4.40;;;4.00;;
462;SDS011;218;51.902;9.542;2023-06-14T03:30:29;4.97;;;4.57;;
462;SDS011;218;51.902;9.542;2023-06-14T03:32:56;4.30;;;3.90;;
462;SDS011;218;51.902;9.542;2023-06-14T03:35:26;4.20;;;3.80;;
462;SDS011;218;51.902;9.542;2023-06-14T03:37:53;3.40;;;3.20;;
462;SDS011;218;51.902;9.542;2023-06-14T03:40:20;3.88;;;3.13;;
462;SDS011;218;51.902;9.542;2023-06-14T03:42:53;3.40;;;3.10;;
462;SDS011;218;51.902;9.542;2023-06-14T03:45:20;3.58;;;3.20;;
462;SDS011;218;51.902;9.542;2023-06-14T03:47:47;3.60;;;3.30;;
462;SDS011;218;51.902;9.542;2023-06-14T03:50:15;4.80;;;3.50;;
462;SDS011;218;51.902;9.542;2023-06-14T03:52:43;3.50;;;3.20;;
462;SDS011;218;51.902;9.542;2023-06-14T03:55:10;3.50;;;3.28;;
462;SDS011;218;51.902;9.542;2023-06-14T03:57:38;3.75;;;3.45;;
462;SDS011;218;51.902;9.542;2023-06-14T04:00:07;3.20;;;3.00;;
462;SDS011;218;51.902;9.542;2023-06-14T04:02:36;4.50;;;3.30;;
462;SDS011;218;51.902;9.542;2023-06-14T04:05:05;3.10;;;2.90;;
462;SDS011;218;51.902;9.542;2023-06-14T04:07:34;3.10;;;2.80;;
462;SDS011;218;51.902;9.542;2023-06-14T04:10:05;3.22;;;3.00;;
462;SDS011;218;51.902;9.542;2023-06-14T04:12:32;4.03;;;2.97;;
462;SDS011;218;51.902;9.542;2023-06-14T04:15:00;3.30;;;3.00;;
462;SDS011;218;51.902;9.542;2023-06-14T04:17:29;3.50;;;3.30;;
462;SDS011;218;51.902;9.542;2023-06-14T04:19:57;4.07;;;3.43;;
462;SDS011;218;51.902;9.542;2023-06-14T04:22:25;3.33;;;3.03;;
462;SDS011;218;51.902;9.542;2023-06-14T04:24:53;3.70;;;3.40;;
462;SDS011;218;51.902;9.542;2023-06-14T04:27:21;3.42;;;3.13;;
462;SDS011;218;51.902;9.542;2023-06-14T04:29:51;3.88;;;3.50;;
462;SDS011;218;51.902;9.542;2023-06-14T04:32:23;3.72;;;3.42;;
462;SDS011;218;51.902;9.542;2023-06-14T04:34:53;3.80;;;3.50;;
462;SDS011;218;51.902;9.542;2023-06-14T04:37:20;3.55;;;3.35;;
462;SDS011;218;51.902;9.542;2023-06-14T04:39:47;3.90;;;3.60;;
462;SDS011;218;51.902;9.542;2023-06-14T04:42:15;3.35;;;3.05;;
462;SDS011;218;51.902;9.542;2023-06-14T04:44:45;3.80;;;3.50;;
462;SDS011;218;51.902;9.542;2023-06-14T04:47:13;3.80;;;3.50;;
462;SDS011;218;51.902;9.542;2023-06-14T04:49:44;4.20;;;3.50;;
462;SDS011;218;51.902;9.542;2023-06-14T04:52:12;3.40;;;3.20;;
462;SDS011;218;51.902;9.542;2023-06-14T04:54:40;3.50;;;3.30;;
462;SDS011;218;51.902;9.542;2023-06-14T04:57:08;4.37;;;3.20;;
462;SDS011;218;51.902;9.542;2023-06-14T04:59:39;4.13;;;3.83;;
462;SDS011;218;51.902;9.542;2023-06-14T05:02:06;3.60;;;3.30;;
462;SDS011;218;51.902;9.542;2023-06-14T05:04:34;3.80;;;3.50;;
462;SDS011;218;51.902;9.542;2023-06-14T05:07:04;3.80;;;3.40;;
462;SDS011;218;51.902;9.542;2023-06-14T05:09:33;4.72;;;3.85;;
462;SDS011;218;51.902;9.542;2023-06-14T05:12:00;4.30;;;4.00;;
462;SDS011;218;51.902;9.542;2023-06-14T05:14:27;3.60;;;2.83;;
462;SDS011;218;51.902;9.542;2023-06-14T05:16:55;3.80;;;3.50;;
462;SDS011;218;51.902;9.542;2023-06-14T05:19:22;3.70;;;3.05;;
462;SDS011;218;51.902;9.542;2023-06-14T05:21:49;4.53;;;3.83;;
462;SDS011;218;51.902;9.542;2023-06-14T05:24:16;3.42;;;3.13;;
462;SDS011;218;51.902;9.542;2023-06-14T05:26:45;4.47;;;4.07;;
462;SDS011;218;51.902;9.542;2023-06-14T05:29:12;3.80;;;3.50;;
462;SDS011;218;51.902;9.542;2023-06-14T05:31:39;4.53;;;4.13;;
462;SDS011;218;51.902;9.542;2023-06-14T05:34:06;3.70;;;3.40;;
462;SDS011;218;51.902;9.542;2023-06-14T05:36:33;4.17;;;3.87;;
462;SDS011;218;51.902;9.542;2023-06-14T05:39:02;3.60;;;3.30;;
462;SDS011;218;51.902;9.542;2023-06-14T05:41:29;3.33;;;3.13;;
462;SDS011;218;51.902;9.542;2023-06-14T05:43:58;3.80;;;3.37;;
462;SDS011;218;51.902;9.542;2023-06-14T05:46:26;3.97;;;3.60;;
462;SDS011;218;51.902;9.542;2023-06-14T05:48:53;3.70;;;3.50;;
462;SDS011;218;51.902;9.542;2023-06-14T05:51:21;3.67;;;3.40;;
462;SDS011;218;51.902;9.542;2023-06-14T05:53:49;3.83;;;3.43;;
462;SDS011;218;51.902;9.542;2023-06-14T05:56:17;3.27;;;2.97;;
462;SDS011;218;51.902;9.542;2023-06-14T05:58:44;3.42;;;3.22;;
462;SDS011;218;51.902;9.542;2023-06-14T06:01:13;3.10;;;2.90;;
462;SDS011;218;51.902;9.542;2023-06-14T06:03:41;3.10;;;2.90;;
462;SDS011;218;51.902;9.542;2023-06-14T06:06:10;2.90;;;2.80;;
462;SDS011;218;51.902;9.542;2023-06-14T06:08:37;3.20;;;3.00;;
462;SDS011;218;51.902;9.542;2023-06-14T06:11:05;3.30;;;3.10;;
462;SDS011;218;51.902;9.542;2023-06-14T06:13:32;3.73;;;3.43;;
462;SDS011;218;51.902;9.542;2023-06-14T06:16:00;3.63;;;3.43;;
462;SDS011;218;51.902;9.542;2023-06-14T06:18:28;6.23;;;3.40;;
462;SDS011;218;51.902;9.542;2023-06-14T06:20:55;4.17;;;3.90;;
462;SDS011;218;51.902;9.542;2023-06-14T06:23:22;3.80;;;3.50;;
462;SDS011;218;51.902;9.542;2023-06-14T06:25:49;3.87;;;3.57;;
462;SDS011;218;51.902;9.542;2023-06-14T06:28:17;3.67;;;3.37;;
462;SDS011;218;51.902;9.542;2023-06-14T06:30:44;3.90;;;3.60;;
462;SDS011;218;51.902;9.542;2023-06-14T06:33:11;4.13;;;3.50;;
462;SDS011;218;51.902;9.542;2023-06-14T06:35:40;3.83;;;3.63;;
462;SDS011;218;51.902;9.542;2023-06-14T06:38:07;4.10;;;3.80;;
462;SDS011;218;51.902;9.542;2023-06-14T06:40:35;4.10;;;3.53;;
462;SDS011;218;51.902;9.542;2023-06-14T06:43:02;4.27;;;3.87;;
462;SDS011;218;51.902;9.542;2023-06-14T06:45:29;3.10;;;2.90;;
462;SDS011;218;51.902;9.542;2023-06-14T06:47:56;3.37;;;3.17;;
462;SDS011;218;51.902;9.542;2023-06-14T06:50:23;4.17;;;3.80;;
462;SDS011;218;51.902;9.542;2023-06-14T06:52:51;3.40;;;3.20;;
462;SDS011;218;51.902;9.542;2023-06-14T06:55:19;3.50;;;3.30;;
462;SDS011;218;51.902;9.542;2023-06-14T06:57:49;3.57;;;3.27;;
462;SDS011;218;51.902;9.542;2023-06-14T07:00:17;3.90;;;3.60;;
462;SDS011;218;51.902;9.542;2023-06-14T07:02:45;3.27;;;3.07;;
462;SDS011;218;51.902;9.542;2023-06-14T07:05:12;3.40;;;3.20;;
462;SDS011;218;51.902;9.542;2023-06-14T07:07:39;3.60;;;3.30;;
462;SDS011;218;51.902;9.542;2023-06-14T07:10:07;3.70;;;3.50;;
462;SDS011;218;51.902;9.542;2023-06-14T07:12:35;3.80;;;3.50;;
462;SDS011;218;51.902;9.542;2023-06-14T07:15:04;3.57;;;3.37;;
462;SDS011;218;51.902;9.542;2023-06-14T07:17:32;3.77;;;3.47;;
462;SDS011;218;51.902;9.542;2023-06-14T07:20:01;3.50;;;3.20;;
462;SDS011;218;51.902;9.542;2023-06-14T07:22:37;3.70;;;3.40;;
462;SDS011;218;51.902;9.542;2023-06-14T07:25:06;3.33;;;3.03;;
462;SDS011;218;51.902;9.542;2023-06-14T07:27:34;4.37;;;3.97;;
462;SDS011;218;51.902;9.542;2023-06-14T07:30:01;4.13;;;3.83;;
462;SDS011;218;51.902;9.542;2023-06-14T07:32:29;5.10;;;4.70;;
462;SDS011;218;51.902;9.542;2023-06-14T07:34:56;3.77;;;3.50;;
462;SDS011;218;51.902;9.542;2023-06-14T07:37:23;5.37;;;3.53;;
462;SDS011;218;51.902;9.542;2023-06-14T07:39:50;3.23;;;3.03;;
462;SDS011;218;51.902;9.542;2023-06-14T07:42:18;4.00;;;3.70;;
462;SDS011;218;51.902;9.542;2023-06-14T07:44:45;3.80;;;3.40;;
462;SDS011;218;51.902;9.542;2023-06-14T07:47:12;3.50;;;3.20;;
462;SDS011;218;51.902;9.542;2023-06-14T07:49:38;3.80;;;3.40;;
462;SDS011;218;51.902;9.542;2023-06-14T07:52:06;3.97;;;3.67;;
462;SDS011;218;51.902;9.542;2023-06-14T07:54:33;7.20;;;4.10;;
462;SDS011;218;51.902;9.542;2023-06-14T07:57:00;4.40;;;4.10;;
462;SDS011;218;51.902;9.542;2023-06-14T07:59:28;4.20;;;3.90;;
462;SDS011;218;51.902;9.542;2023-06-14T08:01:55;3.93;;;3.63;;
462;SDS011;218;51.902;9.542;2023-06-14T08:04:22;4.07;;;3.77;;
462;SDS011;218;51.902;9.542;2023-06-14T08:06:50;4.53;;;4.23;;
462;SDS011;218;51.902;9.542;2023-06-14T08:09:17;4.60;;;4.30;;
462;SDS011;218;51.902;9.542;2023-06-14T08:11:43;6.03;;;4.33;;
462;SDS011;218;51.902;9.542;2023-06-14T08:14:10;4.93;;;4.60;;
462;SDS011;218;51.902;9.542;2023-06-14T08:16:39;6.10;;;4.63;;
462;SDS011;218;51.902;9.542;2023-06-14T08:19:06;5.30;;;5.00;;
462;SDS011;218;51.902;9.542;2023-06-14T08:21:33;4.30;;;4.00;;
462;SDS011;218;51.902;9.542;2023-06-14T08:24:01;5.00;;;4.60;;
462;SDS011;218;51.902;9.542;2023-06-14T08:26:28;5.00;;;4.70;;
462;SDS011;218;51.902;9.542;2023-06-14T08:28:56;5.03;;;4.63;;
462;SDS011;218;51.902;9.542;2023-06-14T08:31:23;5.23;;;4.30;;
462;SDS011;218;51.902;9.542;2023-06-14T08:33:52;5.30;;;4.90;;
462;SDS011;218;51.902;9.542;2023-06-14T08:36:18;4.70;;;4.40;;
462;SDS011;218;51.902;9.542;2023-06-14T08:38:47;4.20;;;3.90;;
462;SDS011;218;51.902;9.542;2023-06-14T08:41:16;4.40;;;4.10;;
462;SDS011;218;51.902;9.542;2023-06-14T08:43:47;5.33;;;4.97;;
462;SDS011;218;51.902;9.542;2023-06-14T08:46:14;5.10;;;4.60;;
462;SDS011;218;51.902;9.542;2023-06-14T08:48:46;4.37;;;4.07;;
462;SDS011;218;51.902;9.542;2023-06-14T08:51:16;3.80;;;3.60;;
462;SDS011;218;51.902;9.542;2023-06-14T08:53:46;4.03;;;3.73;;
462;SDS011;218;51.902;9.542;2023-06-14T08:56:22;3.63;;;3.33;;
462;SDS011;218;51.902;9.542;2023-06-14T08:58:51;3.83;;;3.57;;
462;SDS011;218;51.902;9.542;2023-06-14T09:01:18;4.37;;;4.07;;
462;SDS011;218;51.902;9.542;2023-06-14T09:03:46;3.87;;;3.67;;
462;SDS011;218;51.902;9.542;2023-06-14T09:06:16;3.50;;;3.30;;
462;SDS011;218;51.902;9.542;2023-06-14T09:08:44;4.13;;;3.83;;
462;SDS011;218;51.902;9.542;2023-06-14T09:11:12;3.83;;;3.63;;
462;SDS011;218;51.902;9.542;2023-06-14T09:13:40;3.70;;;3.40;;
462;SDS011;218;51.902;9.542;2023-06-14T09:16:08;3.60;;;3.40;;
462;SDS011;218;51.902;9.542;2023-06-14T09:18:35;3.97;;;3.67;;
462;SDS011;218;51.902;9.542;2023-06-14T09:21:03;3.60;;;3.40;;
462;SDS011;218;51.902;9.542;2023-06-14T09:23:34;3.70;;;3.40;;
462;SDS011;218;51.902;9.542;2023-06-14T09:26:06;3.40;;;3.17;;
462;SDS011;218;51.902;9.542;2023-06-14T09:28:33;3.67;;;3.37;;
462;SDS011;218;51.902;9.542;2023-06-14T09:31:00;4.30;;;4.00;;
462;SDS011;218;51.902;9.542;2023-06-14T09:33:27;3.60;;;3.30;;
462;SDS011;218;51.902;9.542;2023-06-14T09:35:54;5.30;;;3.43;;
462;SDS011;218;51.902;9.542;2023-06-14T09:38:21;3.07;;;2.87;;
462;SDS011;218;51.902;9.542;2023-06-14T09:40:50;3.53;;;3.23;;
462;SDS011;218;51.902;9.542;2023-06-14T09:43:17;3.43;;;3.10;;
462;SDS011;218;51.902;9.542;2023-06-14T09:45:46;3.80;;;3.03;;
462;SDS011;218;51.902;9.542;2023-06-14T09:48:14;4.70;;;3.70;;
462;SDS011;218;51.902;9.542;2023-06-14T09:50:43;3.83;;;3.53;;
462;SDS011;218;51.902;9.542;2023-06-14T09:53:12;3.60;;;3.30;;
462;SDS011;218;51.902;9.542;2023-06-14T09:55:40;3.83;;;3.53;;
462;SDS011;218;51.902;9.542;2023-06-14T09:58:09;3.40;;;3.17;;
462;SDS011;218;51.902;9.542;2023-06-14T10:00:38;3.20;;;3.00;;
462;SDS011;218;51.902;9.542;2023-06-14T10:03:06;3.37;;;3.07;;
462;SDS011;218;51.902;9.542;2023-06-14T10:05:39;2.67;;;2.57;;
462;SDS011;218;51.902;9.542;2023-06-14T10:08:08;10.03;;;3.30;;
462;SDS011;218;51.902;9.542;2023-06-14T10:10:38;3.23;;;2.93;;
462;SDS011;218;51.902;9.542;2023-06-14T10:13:06;3.00;;;2.90;;
462;SDS011;218;51.902;9.542;2023-06-14T10:15:42;4.50;;;3.37;;
462;SDS011;218;51.902;9.542;2023-06-14T10:18:16;3.23;;;2.77;;
462;SDS011;218;51.902;9.542;2023-06-14T10:20:51;2.90;;;2.60;;
462;SDS011;218;51.902;9.542;2023-06-14T10:23:24;3.20;;;3.00;;
462;SDS011;218;51.902;9.542;2023-06-14T10:25:54;3.73;;;3.43;;
462;SDS011;218;51.902;9.542;2023-06-14T10:28:24;5.20;;;3.77;;
462;SDS011;218;51.902;9.542;2023-06-14T10:31:02;2.83;;;2.63;;
462;SDS011;218;51.902;9.542;2023-06-14T10:33:30;3.43;;;3.23;;
462;SDS011;218;51.902;9.542;2023-06-14T10:36:10;3.60;;;2.97;;
462;SDS011;218;51.902;9.542;2023-06-14T10:38:59;3.63;;;3.20;;
462;SDS011;218;51.902;9.542;2023-06-14T10:41:28;3.40;;;3.20;;
462;SDS011;218;51.902;9.542;2023-06-14T10:44:23;3.00;;;2.80;;
462;SDS011;218;51.902;9.542;2023-06-14T10:47:07;2.63;;;2.43;;
462;SDS011;218;51.902;9.542;2023-06-14T10:49:37;2.90;;;2.70;;
462;SDS011;218;51.902;9.542;2023-06-14T10:52:07;3.53;;;3.30;;
462;SDS011;218;51.902;9.542;2023-06-14T10:57:31;2.83;;;2.63;;
462;SDS011;218;51.902;9.542;2023-06-14T10:59:58;2.67;;;2.40;;
462;SDS011;218;51.902;9.542;2023-06-14T11:02:45;2.70;;;2.60;;
462;SDS011;218;51.902;9.542;2023-06-14T11:05:23;3.33;;;3.13;;
462;SDS011;218;51.902;9.542;2023-06-14T11:07:55;2.90;;;2.70;;
462;SDS011;218;51.902;9.542;2023-06-14T11:10:37;3.07;;;2.80;;
462;SDS011;218;51.902;9.542;2023-06-14T11:13:04;3.33;;;2.50;;
462;SDS011;218;51.902;9.542;2023-06-14T11:15:34;2.83;;;2.63;;
462;SDS011;218;51.902;9.542;2023-06-14T11:18:04;4.00;;;3.07;;
462;SDS011;218;51.902;9.542;2023-06-14T11:20:32;2.50;;;2.30;;
462;SDS011;218;51.902;9.542;2023-06-14T11:23:00;2.90;;;2.70;;
462;SDS011;218;51.902;9.542;2023-06-14T11:25:27;3.10;;;2.53;;
462;SDS011;218;51.902;9.542;2023-06-14T11:27:54;3.70;;;2.57;;
462;SDS011;218;51.902;9.542;2023-06-14T11:30:22;2.40;;;2.20;;
462;SDS011;218;51.902;9.542;2023-06-14T11:32:50;2.70;;;2.50;;
462;SDS011;218;51.902;9.542;2023-06-14T11:35:20;2.10;;;2.00;;
462;SDS011;218;51.902;9.542;2023-06-14T11:37:49;2.53;;;2.30;;
462;SDS011;218;51.902;9.542;2023-06-14T11:40:18;2.87;;;2.67;;
462;SDS011;218;51.902;9.542;2023-06-14T11:42:45;3.10;;;2.90;;
462;SDS011;218;51.902;9.542;2023-06-14T11:45:12;2.63;;;2.43;;
462;SDS011;218;51.902;9.542;2023-06-14T11:47:39;3.20;;;2.87;;
462;SDS011;218;51.902;9.542;2023-06-14T11:50:07;3.03;;;2.83;;
462;SDS011;218;51.902;9.542;2023-06-14T11:52:37;2.77;;;2.57;;
462;SDS011;218;51.902;9.542;2023-06-14T11:55:04;3.73;;;3.33;;
462;SDS011;218;51.902;9.542;2023-06-14T11:57:34;2.50;;;2.40;;
462;SDS011;218;51.902;9.542;2023-06-14T12:00:03;3.07;;;2.87;;
462;SDS011;218;51.902;9.542;2023-06-14T12:02:33;2.93;;;2.50;;
462;SDS011;218;51.902;9.542;2023-06-14T12:05:03;2.53;;;2.33;;
462;SDS011;218;51.902;9.542;2023-06-14T12:07:32;2.77;;;2.57;;
462;SDS011;218;51.902;9.542;2023-06-14T12:10:08;3.25;;;2.60;;
462;SDS011;218;51.902;9.542;2023-06-14T12:12:36;2.70;;;2.50;;
462;SDS011;218;51.902;9.542;2023-06-14T12:15:04;2.87;;;2.67;;
462;SDS011;218;51.902;9.542;2023-06-14T12:17:32;2.80;;;2.60;;
462;SDS011;218;51.902;9.542;2023-06-14T12:20:04;3.40;;;3.10;;
462;SDS011;218;51.902;9.542;2023-06-14T12:22:35;4.00;;;2.87;;
462;SDS011;218;51.902;9.542;2023-06-14T12:25:03;3.10;;;2.90;;
462;SDS011;218;51.902;9.542;2023-06-14T12:27:32;4.60;;;2.90;;
462;SDS011;218;51.902;9.542;2023-06-14T12:29:59;3.60;;;3.40;;
462;SDS011;218;51.902;9.542;2023-06-14T12:32:27;2.77;;;2.43;;
462;SDS011;218;51.902;9.542;2023-06-14T12:34:54;3.23;;;3.03;;
462;SDS011;218;51.902;9.542;2023-06-14T12:37:21;3.47;;;2.40;;
462;SDS011;218;51.902;9.542;2023-06-14T12:39:48;2.90;;;2.60;;
462;SDS011;218;51.902;9.542;2023-06-14T12:42:16;3.17;;;2.80;;
462;SDS011;218;51.902;9.542;2023-06-14T12:44:44;2.67;;;2.47;;
462;SDS011;218;51.902;9.542;2023-06-14T12:47:11;3.23;;;2.80;;
462;SDS011;218;51.902;9.542;2023-06-14T12:49:39;7.47;;;3.30;;
462;SDS011;218;51.902;9.542;2023-06-14T12:52:07;4.20;;;3.80;;
462;SDS011;218;51.902;9.542;2023-06-14T12:54:36;4.30;;;3.33;;
462;SDS011;218;51.902;9.542;2023-06-14T12:57:04;3.57;;;3.07;;
462;SDS011;218;51.902;9.542;2023-06-14T12:59:31;2.67;;;2.47;;
462;SDS011;218;51.902;9.542;2023-06-14T13:02:01;2.90;;;2.70;;
462;SDS011;218;51.902;9.542;2023-06-14T13:04:39;3.40;;;2.90;;
462;SDS011;218;51.902;9.542;2023-06-14T13:07:06;3.40;;;3.20;;
462;SDS011;218;51.902;9.542;2023-06-14T13:09:33;3.47;;;3.27;;
462;SDS011;218;51.902;9.542;2023-06-14T13:12:00;3.40;;;3.10;;
462;SDS011;218;51.902;9.542;2023-06-14T13:14:27;5.00;;;3.30;;
462;SDS011;218;51.902;9.542;2023-06-14T13:16:55;3.37;;;3.00;;
462;SDS011;218;51.902;9.542;2023-06-14T13:19:23;7.50;;;3.10;;
462;SDS011;218;51.902;9.542;2023-06-14T13:21:50;4.73;;;3.63;;
462;SDS011;218;51.902;9.542;2023-06-14T13:24:17;3.70;;;3.40;;
462;SDS011;218;51.902;9.542;2023-06-14T13:26:44;3.80;;;3.50;;
462;SDS011;218;51.902;9.542;2023-06-14T13:29:11;4.30;;;4.00;;
462;SDS011;218;51.902;9.542;2023-06-14T13:31:38;4.40;;;4.00;;
462;SDS011;218;51.902;9.542;2023-06-14T13:34:05;4.03;;;3.70;;
462;SDS011;218;51.902;9.542;2023-06-14T13:36:33;3.80;;;3.50;;
462;SDS011;218;51.902;9.542;2023-06-14T13:39:00;4.10;;;3.70;;
462;SDS011;218;51.902;9.542;2023-06-14T13:41:28;3.53;;;3.33;;
462;SDS011;218;51.902;9.542;2023-06-14T13:43:57;5.03;;;4.63;;
462;SDS011;218;51.902;9.542;2023-06-14T13:46:24;3.87;;;3.40;;
462;SDS011;218;51.902;9.542;2023-06-14T13:48:51;4.73;;;4.03;;
462;SDS011;218;51.902;9.542;2023-06-14T13:51:19;4.00;;;3.50;;
462;SDS011;218;51.902;9.542;2023-06-14T13:53:47;4.37;;;4.07;;
462;SDS011;218;51.902;9.542;2023-06-14T13:56:15;4.47;;;3.73;;
462;SDS011;218;51.902;9.542;2023-06-14T13:58:43;4.77;;;3.87;;
462;SDS011;218;51.902;9.542;2023-06-14T14:01:10;3.70;;;3.40;;
462;SDS011;218;51.902;9.542;2023-06-14T14:03:37;4.17;;;3.87;;
462;SDS011;218;51.902;9.542;2023-06-14T14:06:04;6.03;;;3.83;;
462;SDS011;218;51.902;9.542;2023-06-14T14:08:32;6.83;;;3.30;;
462;SDS011;218;51.902;9.542;2023-06-14T14:11:00;4.47;;;4.17;;
462;SDS011;218;51.902;9.542;2023-06-14T14:13:27;4.67;;;4.27;;
462;SDS011;218;51.902;9.542;2023-06-14T14:15:54;4.73;;;4.00;;
462;SDS011;218;51.902;9.542;2023-06-14T14:18:21;5.10;;;4.67;;
462;SDS011;218;51.902;9.542;2023-06-14T14:20:48;4.27;;;3.87;;
462;SDS011;218;51.902;9.542;2023-06-14T14:23:15;4.93;;;4.53;;
462;SDS011;218;51.902;9.542;2023-06-14T14:25:42;4.70;;;4.20;;
462;SDS011;218;51.902;9.542;2023-06-14T14:28:11;4.43;;;4.07;;
462;SDS011;218;51.902;9.542;2023-06-14T14:30:38;4.47;;;4.13;;
462;SDS011;218;51.902;9.542;2023-06-14T14:33:05;4.30;;;4.00;;
462;SDS011;218;51.902;9.542;2023-06-14T14:35:32;4.80;;;4.40;;
462;SDS011;218;51.902;9.542;2023-06-14T14:37:59;4.57;;;4.23;;
462;SDS011;218;51.902;9.542;2023-06-14T14:40:28;5.00;;;4.07;;
462;SDS011;218;51.902;9.542;2023-06-14T14:42:55;4.30;;;4.00;;
462;SDS011;218;51.902;9.542;2023-06-14T14:45:23;4.40;;;4.10;;
462;SDS011;218;51.902;9.542;2023-06-14T14:47:50;5.70;;;4.93;;
462;SDS011;218;51.902;9.542;2023-06-14T14:50:17;4.70;;;4.30;;
462;SDS011;218;51.902;9.542;2023-06-14T14:52:44;4.60;;;4.27;;
462;SDS011;218;51.902;9.542;2023-06-14T14:55:11;4.70;;;4.30;;
462;SDS011;218;51.902;9.542;2023-06-14T14:57:38;4.30;;;3.90;;
462;SDS011;218;51.902;9.542;2023-06-14T15:00:05;5.47;;;4.50;;
462;SDS011;218;51.902;9.542;2023-06-14T15:02:34;4.50;;;4.10;;
462;SDS011;218;51.902;9.542;2023-06-14T15:05:01;4.90;;;3.93;;
462;SDS011;218;51.902;9.542;2023-06-14T15:07:28;4.93;;;4.53;;
462;SDS011;218;51.902;9.542;2023-06-14T15:09:59;4.40;;;4.10;;
462;SDS011;218;51.902;9.542;2023-06-14T15:12:26;4.60;;;4.13;;
462;SDS011;218;51.902;9.542;2023-06-14T15:14:53;4.77;;;4.30;;
462;SDS011;218;51.902;9.542;2023-06-14T15:17:20;5.40;;;4.03;;
462;SDS011;218;51.902;9.542;2023-06-14T15:19:51;4.40;;;4.10;;
462;SDS011;218;51.902;9.542;2023-06-14T15:22:18;3.73;;;3.43;;
462;SDS011;218;51.902;9.542;2023-06-14T15:24:45;5.23;;;4.80;;
462;SDS011;218;51.902;9.542;2023-06-14T15:27:12;5.23;;;4.83;;
462;SDS011;218;51.902;9.542;2023-06-14T15:29:41;4.60;;;4.00;;
462;SDS011;218;51.902;9.542;2023-06-14T15:32:09;4.57;;;4.00;;
462;SDS011;218;51.902;9.542;2023-06-14T15:34:36;5.10;;;4.23;;
462;SDS011;218;51.902;9.542;2023-06-14T15:37:06;6.40;;;4.20;;
462;SDS011;218;51.902;9.542;2023-06-14T15:39:33;4.57;;;4.17;;
462;SDS011;218;51.902;9.542;2023-06-14T15:42:00;4.20;;;3.90;;
462;SDS011;218;51.902;9.542;2023-06-14T15:44:29;4.30;;;4.00;;
462;SDS011;218;51.902;9.542;2023-06-14T15:46:56;6.80;;;4.57;;
462;SDS011;218;51.902;9.542;2023-06-14T15:49:22;4.83;;;4.23;;
462;SDS011;218;51.902;9.542;2023-06-14T15:51:50;5.60;;;4.77;;
462;SDS011;218;51.902;9.542;2023-06-14T15:54:18;6.20;;;4.17;;